createdAt,value
2023-05-06T00:01:38.917Z,7.60
2023-05-06T00:04:07.632Z,8.05
2023-05-06T00:06:35.971Z,7.73
2023-05-06T00:09:04.693Z,7.38
2023-05-06T00:11:32.613Z,7.45
2023-05-06T00:14:00.794Z,8.05
2023-05-06T00:16:28.786Z,9.05
2023-05-06T00:18:56.860Z,8.43
2023-05-06T00:21:24.889Z,8.90
2023-05-06T00:23:52.806Z,9.30
2023-05-06T00:26:20.742Z,9.82
2023-05-06T00:28:48.708Z,9.02
2023-05-06T00:31:16.738Z,8.87
2023-05-06T00:33:44.874Z,9.02
2023-05-06T00:36:12.872Z,9.95
2023-05-06T00:38:41.081Z,9.95
2023-05-06T00:41:09.144Z,10.10
2023-05-06T00:43:37.031Z,9.90
2023-05-06T00:46:06.277Z,9.57
2023-05-06T00:48:34.373Z,10.00
2023-05-06T00:51:02.368Z,9.88
2023-05-06T00:53:30.730Z,10.68
2023-05-06T00:56:01.830Z,10.30
2023-05-06T00:58:29.827Z,9.93
2023-05-06T01:00:57.773Z,10.45
2023-05-06T01:03:26.484Z,10.18
2023-05-06T01:06:14.703Z,10.93
2023-05-06T01:08:56.811Z,10.27
2023-05-06T01:11:38.140Z,11.25
2023-05-06T01:14:11.623Z,10.65
2023-05-06T01:16:42.216Z,11.32
2023-05-06T01:19:30.794Z,10.82
2023-05-06T01:22:02.762Z,10.83
2023-05-06T01:24:45.165Z,10.93
2023-05-06T01:27:14.498Z,10.25
2023-05-06T01:29:44.794Z,11.13
2023-05-06T01:32:35.561Z,10.98
2023-05-06T01:35:07.900Z,10.83
2023-05-06T01:37:55.833Z,10.20
2023-05-06T01:40:28.007Z,9.45
2023-05-06T01:42:57.077Z,10.43
2023-05-06T01:45:29.897Z,10.27
2023-05-06T01:47:59.914Z,9.67
2023-05-06T01:50:29.821Z,9.77
2023-05-06T01:53:02.401Z,9.63
2023-05-06T01:55:30.956Z,10.00
2023-05-06T01:57:59.027Z,9.65
2023-05-06T02:00:27.368Z,9.53
2023-05-06T02:02:55.376Z,8.98
2023-05-06T02:05:24.042Z,8.27
2023-05-06T02:07:56.442Z,8.35
2023-05-06T02:10:24.679Z,7.97
2023-05-06T02:12:59.545Z,7.70
2023-05-06T02:15:27.676Z,7.55
2023-05-06T02:17:57.530Z,7.35
2023-05-06T02:20:27.209Z,7.47
2023-05-06T02:22:55.110Z,7.50
2023-05-06T02:25:23.644Z,6.87
2023-05-06T02:27:51.630Z,6.95
2023-05-06T02:30:19.644Z,7.18
2023-05-06T02:32:47.709Z,6.63
2023-05-06T02:35:16.397Z,6.68
2023-05-06T02:37:44.205Z,6.83
2023-05-06T02:40:12.555Z,6.63
2023-05-06T02:42:40.537Z,6.72
2023-05-06T02:45:09.316Z,6.55
2023-05-06T02:47:37.552Z,6.75
2023-05-06T02:50:09.809Z,6.97
2023-05-06T02:52:37.931Z,6.95
2023-05-06T02:55:07.436Z,6.82
2023-05-06T02:57:35.619Z,6.80
2023-05-06T03:00:03.745Z,6.60
2023-05-06T03:02:31.803Z,6.73
2023-05-06T03:05:01.551Z,6.80
2023-05-06T03:07:29.567Z,7.00
2023-05-06T03:09:57.731Z,6.75
2023-05-06T03:12:25.861Z,6.32
2023-05-06T03:14:53.846Z,6.47
2023-05-06T03:17:22.673Z,6.65
2023-05-06T03:19:52.528Z,6.38
2023-05-06T03:22:21.928Z,6.18
2023-05-06T03:24:51.104Z,6.07
2023-05-06T03:27:20.462Z,5.90
2023-05-06T03:29:53.553Z,5.78
2023-05-06T03:32:23.582Z,5.72
2023-05-06T03:34:52.144Z,5.72
2023-05-06T03:37:22.488Z,6.00
2023-05-06T03:39:54.688Z,5.50
2023-05-06T03:42:26.761Z,5.60
2023-05-06T03:44:55.358Z,5.70
2023-05-06T03:47:24.004Z,5.85
2023-05-06T03:49:52.277Z,6.50
2023-05-06T03:52:20.467Z,6.50
2023-05-06T03:54:48.759Z,7.03
2023-05-06T03:57:16.550Z,7.60
2023-05-06T03:59:45.126Z,7.63
2023-05-06T04:02:13.149Z,7.80
2023-05-06T04:04:41.453Z,7.20
2023-05-06T04:07:10.120Z,6.90
2023-05-06T04:09:38.346Z,6.80
2023-05-06T04:12:09.378Z,8.13
2023-05-06T04:14:37.971Z,10.73
2023-05-06T04:17:06.608Z,10.30
2023-05-06T04:19:34.609Z,9.38
2023-05-06T04:22:02.707Z,11.88
2023-05-06T04:24:31.624Z,13.63
2023-05-06T04:27:00.633Z,15.52
2023-05-06T04:29:29.229Z,17.13
2023-05-06T04:32:01.023Z,25.42
2023-05-06T04:34:31.728Z,31.35
2023-05-06T04:37:02.613Z,33.60
2023-05-06T04:39:56.510Z,43.30
2023-05-06T04:42:24.668Z,48.80
2023-05-06T04:45:03.935Z,52.95
2023-05-06T04:47:34.898Z,48.38
2023-05-06T04:50:05.048Z,34.47
2023-05-06T04:52:33.519Z,27.02
2023-05-06T04:55:01.664Z,16.07
2023-05-06T04:57:32.842Z,13.10
2023-05-06T05:00:00.804Z,11.32
2023-05-06T05:02:28.824Z,8.27
2023-05-06T05:04:57.922Z,8.00
2023-05-06T05:07:26.834Z,6.63
2023-05-06T05:09:55.284Z,6.60
2023-05-06T05:12:23.202Z,7.22
2023-05-06T05:14:53.655Z,6.22
2023-05-06T05:17:22.034Z,6.00
2023-05-06T05:19:51.768Z,5.67
2023-05-06T05:22:20.625Z,5.60
2023-05-06T05:24:48.537Z,5.13
2023-05-06T05:27:18.064Z,5.40
2023-05-06T05:29:46.664Z,5.72
2023-05-06T05:32:15.062Z,6.73
2023-05-06T05:34:43.599Z,6.50
2023-05-06T05:37:11.874Z,8.60
2023-05-06T05:39:40.214Z,10.00
2023-05-06T05:42:10.262Z,12.65
2023-05-06T05:44:40.148Z,11.23
2023-05-06T05:47:07.986Z,12.85
2023-05-06T05:49:36.969Z,13.13
2023-05-06T05:52:05.709Z,12.10
2023-05-06T05:54:34.174Z,10.95
2023-05-06T05:57:02.089Z,9.67
2023-05-06T05:59:33.607Z,10.40
2023-05-06T06:02:05.714Z,9.50
2023-05-06T06:04:36.832Z,8.30
2023-05-06T06:07:05.520Z,9.48
2023-05-06T06:09:38.203Z,10.13
2023-05-06T06:12:06.618Z,10.60
2023-05-06T06:14:37.400Z,12.65
2023-05-06T06:17:05.510Z,15.38
2023-05-06T06:19:33.462Z,17.55
2023-05-06T06:22:01.357Z,18.10
2023-05-06T06:24:30.678Z,17.37
2023-05-06T06:26:58.595Z,17.25
2023-05-06T06:29:26.862Z,16.02
2023-05-06T06:31:58.677Z,14.80
2023-05-06T06:34:26.782Z,14.98
2023-05-06T06:36:54.475Z,14.20
2023-05-06T06:39:23.022Z,13.27
2023-05-06T06:41:50.860Z,11.10
2023-05-06T06:44:18.866Z,9.70
2023-05-06T06:46:50.410Z,9.95
2023-05-06T06:49:18.443Z,10.47
2023-05-06T06:51:46.318Z,10.38
2023-05-06T06:54:14.293Z,8.90
2023-05-06T06:56:42.432Z,9.43
2023-05-06T06:59:10.421Z,9.48
2023-05-06T07:01:38.357Z,9.10
2023-05-06T07:04:07.377Z,8.48
2023-05-06T07:06:35.279Z,7.43
2023-05-06T07:09:03.487Z,8.63
2023-05-06T07:11:31.614Z,9.18
2023-05-06T07:13:59.510Z,8.20
2023-05-06T07:16:27.668Z,7.82
2023-05-06T07:18:55.581Z,8.45
2023-05-06T07:21:23.489Z,8.70
2023-05-06T07:23:51.447Z,8.32
2023-05-06T07:26:19.394Z,7.67
2023-05-06T07:28:47.267Z,7.15
2023-05-06T07:31:16.726Z,6.88
2023-05-06T07:33:44.682Z,5.95
2023-05-06T07:36:12.382Z,7.57
2023-05-06T07:38:40.309Z,8.30
2023-05-06T07:41:08.093Z,8.18
2023-05-06T07:43:36.037Z,7.28
2023-05-06T07:46:04.347Z,8.23
2023-05-06T07:48:33.575Z,7.75
2023-05-06T07:51:01.925Z,7.50
2023-05-06T07:53:29.820Z,7.00
2023-05-06T07:56:02.510Z,7.28
2023-05-06T07:58:33.735Z,6.90
2023-05-06T08:01:01.624Z,6.75
2023-05-06T08:03:30.680Z,6.67
2023-05-06T08:05:58.994Z,6.45
2023-05-06T08:08:28.245Z,6.60
2023-05-06T08:10:56.933Z,6.65
2023-05-06T08:13:25.982Z,6.55
2023-05-06T08:15:54.276Z,6.80
2023-05-06T08:18:23.317Z,7.00
2023-05-06T08:20:52.137Z,6.53
2023-05-06T08:23:21.828Z,6.85
2023-05-06T08:25:50.094Z,6.85
2023-05-06T08:28:18.219Z,6.23
2023-05-06T08:30:49.021Z,6.35
2023-05-06T08:33:17.032Z,5.80
2023-05-06T08:35:45.985Z,5.72
2023-05-06T08:38:14.701Z,5.55
2023-05-06T08:40:45.971Z,6.50
2023-05-06T08:43:17.416Z,5.82
2023-05-06T08:45:45.432Z,5.32
2023-05-06T08:48:13.745Z,5.75
2023-05-06T08:50:47.770Z,5.63
2023-05-06T08:53:17.275Z,5.50
2023-05-06T08:55:45.969Z,5.40
2023-05-06T08:58:17.230Z,5.38
2023-05-06T09:00:46.726Z,5.68
2023-05-06T09:03:14.962Z,5.88
2023-05-06T09:05:43.133Z,5.47
2023-05-06T09:08:12.002Z,6.20
2023-05-06T09:10:47.890Z,5.50
2023-05-06T09:13:18.341Z,5.00
2023-05-06T09:15:48.925Z,5.45
2023-05-06T09:18:17.073Z,5.00
2023-05-06T09:20:50.062Z,4.95
2023-05-06T09:23:18.736Z,5.10
2023-05-06T09:25:47.922Z,4.40
2023-05-06T09:28:16.225Z,4.53
2023-05-06T09:30:48.029Z,5.10
2023-05-06T09:33:16.514Z,4.53
2023-05-06T09:35:44.769Z,4.60
2023-05-06T09:38:12.718Z,4.43
2023-05-06T09:40:41.235Z,5.07
2023-05-06T09:43:11.090Z,4.87
2023-05-06T09:45:40.047Z,4.75
2023-05-06T09:48:10.246Z,4.50
2023-05-06T09:50:38.500Z,3.72
2023-05-06T09:53:07.073Z,4.63
2023-05-06T09:55:36.209Z,5.00
2023-05-06T09:58:06.832Z,4.10
2023-05-06T10:00:36.250Z,4.57
2023-05-06T10:03:07.072Z,4.32
2023-05-06T10:05:38.003Z,4.00
2023-05-06T10:08:09.224Z,4.30
2023-05-06T10:10:41.667Z,4.20
2023-05-06T10:13:10.062Z,4.43
2023-05-06T10:15:39.363Z,4.32
2023-05-06T10:18:09.506Z,4.03
2023-05-06T10:20:41.710Z,3.70
2023-05-06T10:23:22.221Z,3.45
2023-05-06T10:25:57.638Z,4.00
2023-05-06T10:28:31.052Z,3.83
2023-05-06T10:31:00.514Z,4.20
2023-05-06T10:33:29.930Z,4.13
2023-05-06T10:36:06.289Z,4.63
2023-05-06T10:38:38.094Z,4.38
2023-05-06T10:41:07.751Z,4.10
2023-05-06T10:43:39.844Z,4.13
2023-05-06T10:46:16.396Z,4.17
2023-05-06T10:49:11.714Z,3.90
2023-05-06T10:51:48.065Z,3.80
2023-05-06T10:54:19.941Z,3.22
2023-05-06T10:56:51.005Z,3.55
2023-05-06T10:59:24.909Z,3.73
2023-05-06T11:02:03.712Z,3.80
2023-05-06T11:04:32.041Z,3.63
2023-05-06T11:07:08.746Z,3.50
2023-05-06T11:10:02.220Z,4.20
2023-05-06T11:12:50.492Z,3.80
2023-05-06T11:15:27.733Z,4.22
2023-05-06T11:17:57.116Z,3.60
2023-05-06T11:20:26.880Z,3.80
2023-05-06T11:22:55.064Z,3.78
2023-05-06T11:25:43.200Z,3.80
2023-05-06T11:28:13.371Z,3.97
2023-05-06T11:30:54.373Z,3.50
2023-05-06T11:33:24.564Z,3.53
2023-05-06T11:35:53.512Z,3.90
2023-05-06T11:38:21.328Z,3.50
2023-05-06T11:40:50.052Z,3.65
2023-05-06T11:43:18.285Z,3.70
2023-05-06T11:45:48.080Z,3.80
2023-05-06T11:48:17.258Z,4.10
2023-05-06T11:50:49.886Z,3.57
2023-05-06T11:53:19.960Z,3.72
2023-05-06T11:55:49.017Z,3.80
2023-05-06T11:58:19.264Z,3.80
2023-05-06T12:00:58.124Z,3.90
2023-05-06T12:03:28.283Z,3.93
2023-05-06T12:05:56.831Z,3.70
2023-05-06T12:08:29.172Z,3.90
2023-05-06T12:11:01.393Z,3.60
2023-05-06T12:13:30.191Z,3.40
2023-05-06T12:16:01.970Z,3.90
2023-05-06T12:18:30.826Z,3.90
2023-05-06T12:21:07.744Z,3.97
2023-05-06T12:23:35.985Z,3.70
2023-05-06T12:26:09.533Z,3.80
2023-05-06T12:28:38.328Z,3.80
2023-05-06T12:31:23.704Z,3.35
2023-05-06T12:33:51.902Z,3.40
2023-05-06T12:36:20.173Z,3.00
2023-05-06T12:38:58.810Z,3.63
2023-05-06T12:41:46.460Z,3.60
2023-05-06T12:44:39.572Z,3.22
2023-05-06T12:47:20.159Z,3.40
2023-05-06T12:49:53.354Z,3.40
2023-05-06T12:52:23.861Z,3.40
2023-05-06T12:54:53.343Z,3.40
2023-05-06T12:57:23.744Z,3.88
2023-05-06T12:59:51.892Z,3.35
2023-05-06T13:02:20.018Z,4.10
2023-05-06T13:04:48.201Z,4.10
2023-05-06T13:07:16.112Z,3.97
2023-05-06T13:09:45.386Z,3.75
2023-05-06T13:12:13.670Z,3.78
2023-05-06T13:14:41.875Z,3.88
2023-05-06T13:17:10.040Z,3.80
2023-05-06T13:19:38.241Z,4.10
2023-05-06T13:22:06.554Z,3.85
2023-05-06T13:24:34.762Z,3.90
2023-05-06T13:27:03.020Z,3.83
2023-05-06T13:29:31.223Z,4.20
2023-05-06T13:31:59.405Z,3.80
2023-05-06T13:34:28.460Z,3.75
2023-05-06T13:36:57.128Z,3.90
2023-05-06T13:39:25.718Z,3.97
2023-05-06T13:41:54.658Z,3.72
2023-05-06T13:44:23.107Z,3.40
2023-05-06T13:46:51.528Z,3.70
2023-05-06T13:49:20.224Z,3.72
2023-05-06T13:51:48.209Z,3.80
2023-05-06T13:54:16.856Z,3.55
2023-05-06T13:56:45.013Z,3.53
2023-05-06T13:59:14.290Z,3.83
2023-05-06T14:01:42.950Z,3.72
2023-05-06T14:04:11.533Z,3.70
2023-05-06T14:06:39.560Z,3.83
2023-05-06T14:09:08.554Z,4.10
2023-05-06T14:11:36.548Z,4.28
2023-05-06T14:14:05.559Z,3.70
2023-05-06T14:16:33.674Z,4.15
2023-05-06T14:19:01.803Z,3.80
2023-05-06T14:21:29.836Z,3.70
2023-05-06T14:23:57.953Z,4.15
2023-05-06T14:26:26.176Z,4.18
2023-05-06T14:28:54.238Z,3.95
2023-05-06T14:31:22.380Z,4.10
2023-05-06T14:33:50.720Z,4.10
2023-05-06T14:36:20.364Z,4.10
2023-05-06T14:38:48.582Z,4.10
2023-05-06T14:41:16.688Z,4.00
2023-05-06T14:43:44.926Z,4.40
2023-05-06T14:46:14.987Z,4.53
2023-05-06T14:48:44.404Z,4.15
2023-05-06T14:51:12.735Z,4.10
2023-05-06T14:53:40.753Z,4.07
2023-05-06T14:56:11.333Z,4.20
2023-05-06T14:58:43.460Z,4.23
2023-05-06T15:01:11.817Z,4.60
2023-05-06T15:03:39.874Z,4.30
2023-05-06T15:06:09.074Z,4.00
2023-05-06T15:08:37.669Z,3.92
2023-05-06T15:11:06.346Z,4.17
2023-05-06T15:13:34.407Z,3.75
2023-05-06T15:16:03.600Z,4.10
2023-05-06T15:18:32.108Z,3.92
2023-05-06T15:21:01.937Z,3.88
2023-05-06T15:23:29.931Z,4.00
2023-05-06T15:25:58.644Z,4.03
2023-05-06T15:28:26.548Z,4.05
2023-05-06T15:30:54.726Z,3.80
2023-05-06T15:33:22.659Z,4.07
2023-05-06T15:35:51.216Z,6.57
2023-05-06T15:38:19.611Z,4.15
2023-05-06T15:40:52.403Z,3.95
2023-05-06T15:43:24.077Z,4.40
2023-05-06T15:45:53.286Z,4.47
2023-05-06T15:48:21.675Z,4.20
2023-05-06T15:50:49.830Z,4.40
2023-05-06T15:53:19.880Z,4.32
2023-05-06T15:55:56.580Z,4.30
2023-05-06T15:58:26.177Z,4.20
2023-05-06T16:00:54.254Z,4.67
2023-05-06T16:03:22.550Z,3.90
2023-05-06T16:05:53.019Z,4.45
2023-05-06T16:08:21.327Z,4.43
2023-05-06T16:10:49.292Z,4.78
2023-05-06T16:13:17.558Z,5.00
2023-05-06T16:15:45.783Z,5.13
2023-05-06T16:18:14.152Z,5.18
2023-05-06T16:20:42.184Z,5.13
2023-05-06T16:23:11.026Z,5.07
2023-05-06T16:25:39.334Z,5.47
2023-05-06T16:28:09.372Z,5.50
2023-05-06T16:30:37.975Z,5.28
2023-05-06T16:33:06.017Z,5.22
2023-05-06T16:35:34.046Z,5.05
2023-05-06T16:38:02.174Z,5.03
2023-05-06T16:40:31.477Z,5.22
2023-05-06T16:42:59.494Z,5.50
2023-05-06T16:45:27.779Z,4.82
2023-05-06T16:47:56.020Z,5.00
2023-05-06T16:50:24.659Z,4.60
2023-05-06T16:52:54.399Z,4.80
2023-05-06T16:55:22.649Z,14.57
2023-05-06T16:57:51.013Z,11.25
2023-05-06T17:00:19.738Z,6.35
2023-05-06T17:02:48.148Z,4.40
2023-05-06T17:05:16.946Z,4.30
2023-05-06T17:07:45.149Z,4.20
2023-05-06T17:10:13.542Z,4.28
2023-05-06T17:12:43.044Z,4.28
2023-05-06T17:15:12.035Z,4.53
2023-05-06T17:17:40.901Z,4.35
2023-05-06T17:20:10.973Z,4.20
2023-05-06T17:22:39.337Z,4.57
2023-05-06T17:25:08.054Z,4.72
2023-05-06T17:27:36.448Z,5.00
2023-05-06T17:30:05.407Z,4.43
2023-05-06T17:32:33.638Z,4.88
2023-05-06T17:35:02.180Z,5.13
2023-05-06T17:37:31.703Z,6.00
2023-05-06T17:39:59.740Z,6.47
2023-05-06T17:42:28.149Z,6.53
2023-05-06T17:44:56.406Z,6.97
2023-05-06T17:47:25.047Z,6.70
2023-05-06T17:49:54.370Z,6.20
2023-05-06T17:52:26.985Z,5.90
2023-05-06T17:55:05.662Z,5.28
2023-05-06T17:57:39.716Z,5.50
2023-05-06T18:00:09.604Z,5.60
2023-05-06T18:02:42.391Z,5.60
2023-05-06T18:05:10.883Z,5.40
2023-05-06T18:07:39.304Z,5.00
2023-05-06T18:10:08.438Z,4.50
2023-05-06T18:12:36.328Z,4.43
2023-05-06T18:15:05.165Z,4.72
2023-05-06T18:17:33.446Z,4.07
2023-05-06T18:20:01.548Z,4.18
2023-05-06T18:22:29.864Z,4.30
2023-05-06T18:24:57.998Z,4.32
2023-05-06T18:27:25.957Z,4.40
2023-05-06T18:29:53.910Z,5.20
2023-05-06T18:32:21.943Z,5.30
2023-05-06T18:34:50.068Z,5.70
2023-05-06T18:37:17.968Z,6.20
2023-05-06T18:39:46.329Z,5.70
2023-05-06T18:42:14.238Z,5.77
2023-05-06T18:44:43.589Z,5.50
2023-05-06T18:47:11.983Z,5.70
2023-05-06T18:49:40.457Z,5.65
2023-05-06T18:52:08.433Z,6.38
2023-05-06T18:54:36.745Z,7.43
2023-05-06T18:57:04.947Z,7.55
2023-05-06T18:59:34.377Z,7.57
2023-05-06T19:02:03.806Z,7.28
2023-05-06T19:04:32.563Z,7.88
2023-05-06T19:07:00.534Z,6.67
2023-05-06T19:09:28.643Z,6.28
2023-05-06T19:11:56.623Z,5.60
2023-05-06T19:14:25.548Z,5.05
2023-05-06T19:16:53.660Z,5.68
2023-05-06T19:19:21.856Z,5.53
2023-05-06T19:21:50.001Z,5.43
2023-05-06T19:24:18.184Z,5.10
2023-05-06T19:26:46.750Z,5.00
2023-05-06T19:29:15.278Z,5.57
2023-05-06T19:31:43.102Z,5.40
2023-05-06T19:34:11.155Z,5.18
2023-05-06T19:36:39.086Z,5.25
2023-05-06T19:39:07.114Z,8.68
2023-05-06T19:41:34.969Z,6.85
2023-05-06T19:44:03.030Z,6.60
2023-05-06T19:46:30.963Z,6.50
2023-05-06T19:49:01.164Z,6.47
2023-05-06T19:51:29.377Z,6.43
2023-05-06T19:53:57.265Z,8.75
2023-05-06T19:56:25.442Z,9.20
2023-05-06T19:58:53.513Z,7.63
2023-05-06T20:01:22.916Z,7.20
2023-05-06T20:03:52.470Z,7.90
2023-05-06T20:06:21.124Z,10.85
2023-05-06T20:08:49.070Z,12.03
2023-05-06T20:11:17.334Z,9.45
2023-05-06T20:13:45.854Z,8.63
2023-05-06T20:16:16.421Z,8.75
2023-05-06T20:18:44.893Z,7.65
2023-05-06T20:21:15.468Z,9.80
2023-05-06T20:23:44.660Z,11.25
2023-05-06T20:26:12.853Z,14.77
2023-05-06T20:28:45.293Z,16.45
2023-05-06T20:31:15.168Z,16.90
2023-05-06T20:33:43.384Z,18.03
2023-05-06T20:36:13.230Z,19.00
2023-05-06T20:38:41.829Z,17.33
2023-05-06T20:41:09.726Z,14.75
2023-05-06T20:43:37.990Z,10.70
2023-05-06T20:46:07.342Z,8.40
2023-05-06T20:48:36.292Z,8.10
2023-05-06T20:51:04.668Z,7.13
2023-05-06T20:53:33.083Z,7.63
2023-05-06T20:56:01.586Z,7.30
2023-05-06T20:58:29.957Z,7.50
2023-05-06T21:00:58.483Z,7.15
2023-05-06T21:03:27.188Z,7.95
2023-05-06T21:05:55.933Z,7.68
2023-05-06T21:08:23.988Z,7.20
2023-05-06T21:10:52.127Z,7.03
2023-05-06T21:13:20.196Z,7.63
2023-05-06T21:15:48.499Z,7.30
2023-05-06T21:18:18.601Z,7.25
2023-05-06T21:20:46.957Z,7.40
2023-05-06T21:23:15.847Z,7.83
2023-05-06T21:25:44.385Z,7.40
2023-05-06T21:28:12.452Z,7.57
2023-05-06T21:30:40.959Z,7.55
2023-05-06T21:33:11.551Z,7.05
2023-05-06T21:35:39.830Z,6.97
2023-05-06T21:38:07.783Z,6.45
2023-05-06T21:40:36.396Z,6.03
2023-05-06T21:43:04.695Z,6.30
2023-05-06T21:45:32.930Z,5.88
2023-05-06T21:48:01.973Z,5.83
2023-05-06T21:50:30.544Z,5.63
2023-05-06T21:52:58.453Z,5.43
2023-05-06T21:55:28.382Z,5.25
2023-05-06T21:57:56.755Z,5.38
2023-05-06T22:00:24.725Z,4.87
2023-05-06T22:02:53.688Z,5.40
2023-05-06T22:05:21.651Z,5.70
2023-05-06T22:07:51.865Z,5.82
2023-05-06T22:10:20.436Z,5.03
2023-05-06T22:12:48.415Z,5.10
2023-05-06T22:15:16.655Z,5.25
2023-05-06T22:17:44.767Z,5.38
2023-05-06T22:20:15.607Z,5.22
2023-05-06T22:22:44.793Z,4.95
2023-05-06T22:25:12.813Z,4.97
2023-05-06T22:27:41.301Z,5.18
2023-05-06T22:30:10.113Z,5.40
2023-05-06T22:32:38.466Z,5.22
2023-05-06T22:35:07.033Z,4.75
2023-05-06T22:37:34.921Z,5.00
2023-05-06T22:40:03.074Z,5.20
2023-05-06T22:42:31.206Z,5.25
2023-05-06T22:44:59.794Z,5.10
2023-05-06T22:47:32.513Z,5.20
2023-05-06T22:50:04.156Z,4.83
2023-05-06T22:52:38.935Z,5.05
2023-05-06T22:55:14.263Z,5.07
2023-05-06T22:57:43.296Z,5.00
2023-05-06T23:00:13.036Z,5.38
2023-05-06T23:02:41.185Z,5.23
2023-05-06T23:05:10.012Z,5.28
2023-05-06T23:07:38.658Z,5.35
2023-05-06T23:10:07.083Z,5.55
2023-05-06T23:12:35.768Z,6.15
2023-05-06T23:15:03.846Z,5.30
2023-05-06T23:17:32.593Z,5.53
2023-05-06T23:20:00.671Z,5.00
2023-05-06T23:22:28.956Z,4.90
2023-05-06T23:24:56.784Z,4.80
2023-05-06T23:27:24.847Z,4.90
2023-05-06T23:29:52.989Z,5.03
2023-05-06T23:32:21.055Z,5.05
2023-05-06T23:34:49.936Z,4.60
2023-05-06T23:37:18.053Z,4.88
2023-05-06T23:39:47.283Z,4.60
2023-05-06T23:42:15.596Z,4.85
2023-05-06T23:44:43.546Z,4.57
2023-05-06T23:47:12.461Z,4.40
2023-05-06T23:49:40.405Z,4.60
2023-05-06T23:52:08.779Z,4.50
2023-05-06T23:54:36.953Z,4.88
2023-05-06T23:57:05.156Z,4.68
2023-05-06T23:59:33.703Z,4.63
